createdAt,value
2022-11-16T00:00:36.825Z,55.05
2022-11-16T00:05:42.643Z,59.83
2022-11-16T00:10:47.853Z,56.60
2022-11-16T00:15:57.992Z,57.83
2022-11-16T00:21:06.102Z,53.10
2022-11-16T00:26:13.827Z,59.17
2022-11-16T00:31:19.790Z,51.07
2022-11-16T00:36:25.611Z,53.17
2022-11-16T00:41:31.813Z,55.55
2022-11-16T00:46:37.089Z,51.83
2022-11-16T00:51:42.791Z,51.15
2022-11-16T00:56:47.972Z,53.37
2022-11-16T01:01:53.725Z,50.83
2022-11-16T01:06:59.097Z,47.67
2022-11-16T01:12:10.232Z,49.37
2022-11-16T01:17:16.490Z,48.30
2022-11-16T01:22:22.439Z,48.10
2022-11-16T01:27:28.026Z,47.90
2022-11-16T01:32:34.412Z,49.50
2022-11-16T01:37:39.926Z,47.23
2022-11-16T01:42:44.931Z,46.60
2022-11-16T01:47:50.973Z,48.37
2022-11-16T01:53:01.710Z,49.20
2022-11-16T01:58:07.650Z,49.17
2022-11-16T02:03:13.365Z,47.97
2022-11-16T02:09:14.091Z,47.83
2022-11-16T02:14:37.352Z,47.00
2022-11-16T02:20:06.627Z,48.20
2022-11-16T02:25:35.577Z,49.03
2022-11-16T02:30:43.830Z,49.80
2022-11-16T02:35:54.076Z,47.87
2022-11-16T02:41:08.430Z,45.37
2022-11-16T02:46:19.449Z,45.83
2022-11-16T02:51:27.371Z,46.03
2022-11-16T02:56:34.020Z,43.93
2022-11-16T03:01:42.726Z,45.63
2022-11-16T03:06:51.447Z,46.58
2022-11-16T03:11:59.750Z,45.10
2022-11-16T03:17:08.085Z,46.15
2022-11-16T03:22:19.334Z,46.43
2022-11-16T03:27:27.714Z,46.10
2022-11-16T03:32:57.204Z,44.73
2022-11-16T03:38:04.731Z,46.63
2022-11-16T03:43:11.385Z,43.83
2022-11-16T03:48:17.807Z,44.86
2022-11-16T03:53:22.894Z,44.13
2022-11-16T03:58:28.140Z,46.00
2022-11-16T04:03:33.575Z,44.38
2022-11-16T04:08:56.355Z,47.77
2022-11-16T04:14:19.167Z,53.33
2022-11-16T04:19:42.231Z,64.75
2022-11-16T04:24:50.872Z,45.73
2022-11-16T04:29:58.789Z,44.90
2022-11-16T04:35:21.331Z,46.60
2022-11-16T04:40:29.582Z,47.50
2022-11-16T04:45:52.379Z,46.20
2022-11-16T04:50:58.023Z,48.07
2022-11-16T04:56:03.535Z,46.77
2022-11-16T05:01:08.738Z,48.33
2022-11-16T05:06:14.328Z,49.37
2022-11-16T05:11:19.510Z,47.93
2022-11-16T05:16:25.702Z,48.53
2022-11-16T05:21:30.867Z,44.23
2022-11-16T05:26:36.003Z,44.93
2022-11-16T05:31:41.298Z,45.33
2022-11-16T05:36:47.535Z,47.30
2022-11-16T05:41:53.841Z,45.20
2022-11-16T05:46:58.883Z,46.00
2022-11-16T05:52:03.959Z,43.20
2022-11-16T05:57:09.344Z,43.37
2022-11-16T06:02:17.135Z,42.97
2022-11-16T06:07:22.715Z,44.90
2022-11-16T06:12:28.870Z,47.13
2022-11-16T06:17:33.965Z,43.33
2022-11-16T06:22:39.624Z,42.73
2022-11-16T06:27:44.604Z,41.53
2022-11-16T06:32:49.815Z,45.77
2022-11-16T06:37:55.337Z,47.00
2022-11-16T06:43:01.226Z,44.60
2022-11-16T06:48:06.308Z,43.20
2022-11-16T06:53:11.586Z,42.87
2022-11-16T06:58:17.580Z,43.33
2022-11-16T07:03:23.158Z,47.80
2022-11-16T07:08:29.346Z,48.20
2022-11-16T07:13:36.097Z,48.28
2022-11-16T07:18:42.228Z,48.08
2022-11-16T07:23:47.109Z,48.70
2022-11-16T07:28:52.834Z,48.37
2022-11-16T07:33:59.353Z,48.17
2022-11-16T07:39:04.565Z,46.63
2022-11-16T07:44:12.266Z,46.93
2022-11-16T07:49:19.920Z,49.63
2022-11-16T07:54:26.305Z,49.00
2022-11-16T07:59:32.428Z,53.52
2022-11-16T08:04:39.228Z,47.13
2022-11-16T08:09:44.806Z,74.65
2022-11-16T08:14:50.098Z,57.13
2022-11-16T08:19:55.008Z,57.73
2022-11-16T08:25:00.202Z,56.13
2022-11-16T08:30:08.134Z,55.60
2022-11-16T08:35:13.896Z,52.60
2022-11-16T08:40:19.579Z,51.27
2022-11-16T08:45:28.449Z,52.83
2022-11-16T08:50:55.526Z,63.63
2022-11-16T08:55:42.683Z,51.57
2022-11-16T09:00:48.003Z,50.85
2022-11-16T09:05:53.677Z,50.57
2022-11-16T09:10:59.008Z,53.53
2022-11-16T09:16:05.065Z,52.03
2022-11-16T09:21:10.443Z,54.95
2022-11-16T09:26:16.955Z,52.80
2022-11-16T09:31:23.737Z,52.13
2022-11-16T09:36:30.138Z,53.98
2022-11-16T09:41:47.350Z,51.97
2022-11-16T09:46:55.677Z,52.93
2022-11-16T09:52:03.874Z,52.63
2022-11-16T09:57:12.973Z,53.53
2022-11-16T10:02:39.189Z,54.93
2022-11-16T10:07:51.257Z,47.27
2022-11-16T10:13:02.494Z,48.37
2022-11-16T10:18:16.093Z,47.23
2022-11-16T10:23:49.912Z,48.13
2022-11-16T10:29:06.934Z,49.00
2022-11-16T10:39:20.622Z,50.57
2022-11-16T10:44:41.369Z,51.50
2022-11-16T10:49:58.036Z,50.27
2022-11-16T11:00:12.834Z,51.03
2022-11-16T11:05:20.682Z,48.90
2022-11-16T11:10:35.777Z,53.63
2022-11-16T11:15:42.672Z,52.33
2022-11-16T11:26:01.728Z,51.10
2022-11-16T11:31:37.101Z,49.90
2022-11-16T11:36:45.143Z,49.93
2022-11-16T11:42:04.257Z,50.90
2022-11-16T11:47:56.792Z,56.33
2022-11-16T11:53:00.924Z,52.03
2022-11-16T11:58:08.917Z,53.30
2022-11-16T12:03:31.903Z,54.33
2022-11-16T12:08:51.688Z,54.53
2022-11-16T12:14:12.078Z,57.13
2022-11-16T12:19:36.930Z,55.10
2022-11-16T12:25:00.817Z,52.37
2022-11-16T12:30:18.147Z,52.87
2022-11-16T12:35:53.517Z,52.93
2022-11-16T12:41:27.388Z,53.87
2022-11-16T12:47:05.357Z,53.90
2022-11-16T12:52:31.707Z,52.73
2022-11-16T12:57:52.015Z,50.77
2022-11-16T13:03:18.082Z,53.67
2022-11-16T13:08:44.318Z,53.23
2022-11-16T13:13:54.125Z,50.08
2022-11-16T13:19:01.291Z,50.70
2022-11-16T13:24:29.954Z,49.53
2022-11-16T13:29:59.207Z,47.93
2022-11-16T13:35:06.298Z,46.23
2022-11-16T13:40:14.928Z,46.63
2022-11-16T13:45:22.635Z,45.87
2022-11-16T13:50:34.500Z,45.73
2022-11-16T13:55:48.460Z,46.00
2022-11-16T14:01:02.327Z,46.40
2022-11-16T14:06:16.080Z,46.63
2022-11-16T14:11:33.225Z,47.40
2022-11-16T14:16:47.110Z,49.20
2022-11-16T14:22:06.756Z,48.10
2022-11-16T14:27:31.599Z,50.23
2022-11-16T14:32:42.660Z,47.77
2022-11-16T14:37:46.701Z,47.17
2022-11-16T14:48:19.666Z,48.27
2022-11-16T14:53:24.840Z,47.40
2022-11-16T14:58:31.120Z,52.60
2022-11-16T15:03:39.808Z,51.77
2022-11-16T15:08:47.823Z,50.50
2022-11-16T15:13:52.870Z,48.40
2022-11-16T15:19:02.338Z,47.67
2022-11-16T15:24:29.520Z,47.17
2022-11-16T15:29:21.454Z,46.97
2022-11-16T15:34:27.148Z,46.95
2022-11-16T15:39:35.501Z,47.63
2022-11-16T15:44:40.780Z,48.20
2022-11-16T15:49:50.357Z,50.20
2022-11-16T15:55:06.417Z,55.33
2022-11-16T16:00:23.012Z,51.20
2022-11-16T16:05:36.702Z,51.63
2022-11-16T16:10:42.162Z,54.27
2022-11-16T16:15:48.538Z,51.77
2022-11-16T16:20:56.206Z,51.13
2022-11-16T16:26:05.446Z,56.27
2022-11-16T16:31:13.017Z,60.93
2022-11-16T16:36:18.364Z,52.03
2022-11-16T16:41:24.776Z,53.10
2022-11-16T16:46:30.684Z,50.20
2022-11-16T16:51:35.840Z,42.53
2022-11-16T16:56:41.133Z,42.50
2022-11-16T17:01:46.606Z,42.20
2022-11-16T17:06:52.924Z,42.20
2022-11-16T17:11:58.362Z,42.73
2022-11-16T17:17:03.430Z,42.17
2022-11-16T17:22:08.388Z,41.57
2022-11-16T17:27:13.547Z,40.90
2022-11-16T17:32:18.716Z,41.13
2022-11-16T17:37:24.679Z,41.63
2022-11-16T17:42:31.366Z,40.90
2022-11-16T17:47:37.072Z,41.23
2022-11-16T17:52:43.710Z,40.83
2022-11-16T17:57:50.013Z,40.83
2022-11-16T18:02:54.984Z,42.37
2022-11-16T18:08:00.659Z,41.03
2022-11-16T18:13:07.330Z,40.40
2022-11-16T18:23:16.535Z,41.07
2022-11-16T18:28:21.922Z,39.93
2022-11-16T18:33:30.405Z,40.17
2022-11-16T18:38:36.327Z,40.97
2022-11-16T18:43:43.908Z,41.23
2022-11-16T18:48:49.101Z,41.45
2022-11-16T18:53:54.163Z,41.73
2022-11-16T18:58:59.849Z,42.03
2022-11-16T19:04:07.518Z,40.63
2022-11-16T19:09:13.029Z,40.90
2022-11-16T19:14:19.305Z,40.00
2022-11-16T19:19:27.804Z,40.40
2022-11-16T19:24:32.985Z,41.48
2022-11-16T19:29:39.464Z,41.90
2022-11-16T19:34:44.690Z,41.20
2022-11-16T19:39:50.511Z,41.37
2022-11-16T19:44:56.014Z,41.50
2022-11-16T19:50:01.652Z,40.60
2022-11-16T19:55:07.889Z,41.30
2022-11-16T20:00:14.140Z,40.58
2022-11-16T20:05:19.542Z,41.30
2022-11-16T20:10:29.614Z,42.03
2022-11-16T20:15:36.296Z,46.00
2022-11-16T20:20:41.689Z,42.47
2022-11-16T20:25:47.314Z,41.37
2022-11-16T20:30:53.549Z,41.58
2022-11-16T20:36:04.530Z,42.20
2022-11-16T20:41:15.648Z,43.57
2022-11-16T20:46:33.911Z,41.40
2022-11-16T20:51:38.862Z,42.43
2022-11-16T20:56:44.430Z,42.30
2022-11-16T21:01:51.032Z,42.53
2022-11-16T21:06:56.418Z,43.40
2022-11-16T21:12:19.598Z,43.93
2022-11-16T21:17:25.289Z,44.93
2022-11-16T21:22:32.409Z,42.43
2022-11-16T21:27:37.119Z,42.13
2022-11-16T21:32:43.306Z,43.90
2022-11-16T21:37:48.337Z,40.50
2022-11-16T21:42:53.784Z,40.20
2022-11-16T21:47:58.681Z,40.33
2022-11-16T21:53:04.170Z,40.60
2022-11-16T21:58:09.353Z,39.57
2022-11-16T22:03:14.634Z,39.80
2022-11-16T22:08:20.349Z,39.57
2022-11-16T22:13:25.615Z,39.00
2022-11-16T22:18:33.010Z,39.53
2022-11-16T22:23:38.583Z,39.57
2022-11-16T22:28:43.988Z,39.00
2022-11-16T22:33:53.869Z,39.33
2022-11-16T22:38:59.616Z,40.13
2022-11-16T22:44:07.167Z,39.27
2022-11-16T22:49:12.673Z,39.23
2022-11-16T22:54:19.011Z,38.63
2022-11-16T22:59:24.027Z,39.33
2022-11-16T23:04:28.994Z,38.90
2022-11-16T23:09:34.741Z,39.03
2022-11-16T23:14:57.385Z,37.97
2022-11-16T23:20:21.153Z,38.70
2022-11-16T23:25:44.244Z,38.70
2022-11-16T23:30:49.192Z,39.30
2022-11-16T23:35:55.050Z,39.30
2022-11-16T23:41:01.673Z,39.50
2022-11-16T23:46:06.815Z,39.13
2022-11-16T23:51:12.494Z,39.50
2022-11-16T23:56:19.034Z,39.63
